createdAt,value
2022-09-26T00:00:13.081Z,96.60
2022-09-26T00:01:13.076Z,96.60
2022-09-26T00:02:13.072Z,96.60
2022-09-26T00:03:13.024Z,96.60
2022-09-26T00:04:13.031Z,96.60
2022-09-26T00:05:13.033Z,96.60
2022-09-26T00:06:13.076Z,96.60
2022-09-26T00:07:12.960Z,96.60
2022-09-26T00:08:12.961Z,96.60
2022-09-26T00:09:13.036Z,96.60
2022-09-26T00:10:12.939Z,96.70
2022-09-26T00:11:12.939Z,96.70
2022-09-26T00:12:12.933Z,96.70
2022-09-26T00:13:12.975Z,96.81
2022-09-26T00:14:12.919Z,96.81
2022-09-26T00:15:12.880Z,96.81
2022-09-26T00:16:12.943Z,96.91
2022-09-26T00:17:12.915Z,96.91
2022-09-26T00:18:12.847Z,96.91
2022-09-26T00:19:12.971Z,96.91
2022-09-26T00:20:12.832Z,97.02
2022-09-26T00:21:12.866Z,97.02
2022-09-26T00:22:12.884Z,97.02
2022-09-26T00:23:12.778Z,97.02
2022-09-26T00:24:13.280Z,97.02
2022-09-26T00:25:13.248Z,96.91
2022-09-26T00:26:12.814Z,96.91
2022-09-26T00:27:12.752Z,96.91
2022-09-26T00:28:12.873Z,96.81
2022-09-26T00:29:12.827Z,96.81
2022-09-26T00:30:12.717Z,96.81
2022-09-26T00:31:12.735Z,96.70
2022-09-26T00:32:12.696Z,96.70
2022-09-26T00:33:12.666Z,96.70
2022-09-26T00:34:12.687Z,96.60
2022-09-26T00:35:12.659Z,96.50
2022-09-26T00:36:12.656Z,96.50
2022-09-26T00:37:12.626Z,96.39
2022-09-26T00:38:12.631Z,96.39
2022-09-26T00:39:12.679Z,96.50
2022-09-26T00:40:12.662Z,96.34
2022-09-26T00:41:12.587Z,96.34
2022-09-26T00:42:12.577Z,96.45
2022-09-26T00:43:12.567Z,96.34
2022-09-26T00:44:13.417Z,96.34
2022-09-26T00:45:12.536Z,96.34
2022-09-26T00:46:12.590Z,96.24
2022-09-26T00:47:12.516Z,96.24
2022-09-26T00:48:12.511Z,96.24
2022-09-26T00:49:12.524Z,96.24
2022-09-26T00:50:12.496Z,96.14
2022-09-26T00:51:12.465Z,96.14
2022-09-26T00:52:12.491Z,96.03
2022-09-26T00:53:12.453Z,96.03
2022-09-26T00:54:12.448Z,96.03
2022-09-26T00:55:12.424Z,96.03
2022-09-26T00:56:12.444Z,95.89
2022-09-26T00:57:12.395Z,95.89
2022-09-26T00:58:12.406Z,95.89
2022-09-26T00:59:12.454Z,95.78
2022-09-26T01:00:12.398Z,95.78
2022-09-26T01:01:12.430Z,95.78
2022-09-26T01:02:12.418Z,95.78
2022-09-26T01:03:12.335Z,95.68
2022-09-26T01:04:13.240Z,95.57
2022-09-26T01:05:12.396Z,95.47
2022-09-26T01:06:12.322Z,95.37
2022-09-26T01:07:12.294Z,95.37
2022-09-26T01:08:12.294Z,95.26
2022-09-26T01:09:12.341Z,95.16
2022-09-26T01:10:12.377Z,95.16
2022-09-26T01:11:16.650Z,95.26
2022-09-26T01:12:12.254Z,95.26
2022-09-26T01:13:12.230Z,95.16
2022-09-26T01:14:12.228Z,95.16
2022-09-26T01:15:12.203Z,95.06
2022-09-26T01:16:12.246Z,95.06
2022-09-26T01:17:12.191Z,94.91
2022-09-26T01:18:12.191Z,95.01
2022-09-26T01:19:12.191Z,94.91
2022-09-26T01:20:12.162Z,94.95
2022-09-26T01:21:12.166Z,94.95
2022-09-26T01:22:12.186Z,94.85
2022-09-26T01:23:12.112Z,94.85
2022-09-26T01:24:12.111Z,94.81
2022-09-26T01:25:12.126Z,94.81
2022-09-26T01:26:12.154Z,94.81
2022-09-26T01:27:12.071Z,94.81
2022-09-26T01:28:12.080Z,94.81
2022-09-26T01:29:12.148Z,94.81
2022-09-26T01:30:12.052Z,94.81
2022-09-26T01:31:12.124Z,94.81
2022-09-26T01:32:12.032Z,94.91
2022-09-26T01:33:12.021Z,94.91
2022-09-26T01:34:12.011Z,95.01
2022-09-26T01:35:11.982Z,94.91
2022-09-26T01:36:12.151Z,94.91
2022-09-26T01:37:12.001Z,94.91
2022-09-26T01:38:11.963Z,94.91
2022-09-26T01:39:12.010Z,94.81
2022-09-26T01:40:11.979Z,94.91
2022-09-26T01:41:11.911Z,94.91
2022-09-26T01:42:11.930Z,94.91
2022-09-26T01:43:11.914Z,94.91
2022-09-26T01:44:11.901Z,94.91
2022-09-26T01:45:12.621Z,94.81
2022-09-26T01:46:11.959Z,94.81
2022-09-26T01:47:11.888Z,94.70
2022-09-26T01:48:11.839Z,94.60
2022-09-26T01:49:11.898Z,94.49
2022-09-26T01:50:11.810Z,94.54
2022-09-26T01:51:11.848Z,94.43
2022-09-26T01:52:11.790Z,94.43
2022-09-26T01:53:11.801Z,94.43
2022-09-26T01:54:11.780Z,94.64
2022-09-26T01:55:11.770Z,94.74
2022-09-26T01:56:11.751Z,94.74
2022-09-26T01:57:11.811Z,94.85
2022-09-26T01:58:11.755Z,94.95
2022-09-26T01:59:11.776Z,94.95
2022-09-26T02:00:11.719Z,94.95
2022-09-26T02:01:11.770Z,94.95
2022-09-26T02:02:11.745Z,95.01
2022-09-26T02:03:11.687Z,94.91
2022-09-26T02:04:11.941Z,94.91
2022-09-26T02:05:12.491Z,94.85
2022-09-26T02:06:12.406Z,94.85
2022-09-26T02:07:11.651Z,94.74
2022-09-26T02:08:11.617Z,94.74
2022-09-26T02:09:11.666Z,94.74
2022-09-26T02:10:11.610Z,94.74
2022-09-26T02:11:11.609Z,94.85
2022-09-26T02:12:11.568Z,94.85
2022-09-26T02:13:11.578Z,94.95
2022-09-26T02:14:11.548Z,94.95
2022-09-26T02:15:11.579Z,94.95
2022-09-26T02:16:11.578Z,95.16
2022-09-26T02:17:11.536Z,95.20
2022-09-26T02:18:11.538Z,95.37
2022-09-26T02:19:11.574Z,95.47
2022-09-26T02:20:11.486Z,95.57
2022-09-26T02:21:11.489Z,95.57
2022-09-26T02:22:11.489Z,95.68
2022-09-26T02:23:12.040Z,95.78
2022-09-26T02:24:11.449Z,95.78
2022-09-26T02:25:11.448Z,95.89
2022-09-26T02:26:12.157Z,95.89
2022-09-26T02:27:12.171Z,95.84
2022-09-26T02:28:11.398Z,95.95
2022-09-26T02:29:11.446Z,95.95
2022-09-26T02:30:11.376Z,95.95
2022-09-26T02:31:11.420Z,95.95
2022-09-26T02:32:11.393Z,95.84
2022-09-26T02:33:11.356Z,95.74
2022-09-26T02:34:11.339Z,95.74
2022-09-26T02:35:11.343Z,95.64
2022-09-26T02:36:11.306Z,95.53
2022-09-26T02:37:11.313Z,95.53
2022-09-26T02:38:11.284Z,95.53
2022-09-26T02:39:11.303Z,95.53
2022-09-26T02:40:11.322Z,95.43
2022-09-26T02:41:11.267Z,95.39
2022-09-26T02:42:11.246Z,95.39
2022-09-26T02:43:11.236Z,95.39
2022-09-26T02:44:11.215Z,95.28
2022-09-26T02:45:11.245Z,95.28
2022-09-26T02:46:11.268Z,95.18
2022-09-26T02:47:11.237Z,95.18
2022-09-26T02:48:11.184Z,95.18
2022-09-26T02:49:11.183Z,95.18
2022-09-26T02:50:11.155Z,95.03
2022-09-26T02:51:11.159Z,95.03
2022-09-26T02:52:11.136Z,95.03
2022-09-26T02:53:11.143Z,95.03
2022-09-26T02:54:11.104Z,95.03
2022-09-26T02:55:11.193Z,95.03
2022-09-26T02:56:11.094Z,94.93
2022-09-26T02:57:11.093Z,94.93
2022-09-26T02:58:11.075Z,94.78
2022-09-26T02:59:11.075Z,94.68
2022-09-26T03:00:11.034Z,94.57
2022-09-26T03:01:11.110Z,94.47
2022-09-26T03:02:11.023Z,94.37
2022-09-26T03:03:11.043Z,94.26
2022-09-26T03:04:11.013Z,94.16
2022-09-26T03:05:11.073Z,94.06
2022-09-26T03:06:10.973Z,94.06
2022-09-26T03:07:10.993Z,93.95
2022-09-26T03:08:11.813Z,93.85
2022-09-26T03:09:10.995Z,93.74
2022-09-26T03:10:10.936Z,93.74
2022-09-26T03:11:10.948Z,93.64
2022-09-26T03:12:10.903Z,93.64
2022-09-26T03:13:10.914Z,93.64
2022-09-26T03:14:10.893Z,93.64
2022-09-26T03:15:10.894Z,93.64
2022-09-26T03:16:10.918Z,93.49
2022-09-26T03:17:10.872Z,93.49
2022-09-26T03:18:10.843Z,93.39
2022-09-26T03:19:10.846Z,93.49
2022-09-26T03:20:10.822Z,93.49
2022-09-26T03:21:10.833Z,93.39
2022-09-26T03:22:10.791Z,93.39
2022-09-26T03:23:10.981Z,93.29
2022-09-26T03:24:10.772Z,93.29
2022-09-26T03:25:10.802Z,93.29
2022-09-26T03:26:10.751Z,93.29
2022-09-26T03:27:10.802Z,93.39
2022-09-26T03:28:11.696Z,93.49
2022-09-26T03:29:11.622Z,93.49
2022-09-26T03:30:10.720Z,93.49
2022-09-26T03:31:10.712Z,93.39
2022-09-26T03:32:10.779Z,93.39
2022-09-26T03:33:10.682Z,93.39
2022-09-26T03:34:10.691Z,93.39
2022-09-26T03:35:10.673Z,93.39
2022-09-26T03:36:10.642Z,93.49
2022-09-26T03:37:10.639Z,93.49
2022-09-26T03:38:14.248Z,93.49
2022-09-26T03:39:10.622Z,93.39
2022-09-26T03:40:10.621Z,93.29
2022-09-26T03:41:10.611Z,93.29
2022-09-26T03:42:10.570Z,93.29
2022-09-26T03:43:10.581Z,93.29
2022-09-26T03:44:10.550Z,93.29
2022-09-26T03:45:10.558Z,93.29
2022-09-26T03:46:10.591Z,93.29
2022-09-26T03:47:10.533Z,93.24
2022-09-26T03:48:10.520Z,93.14
2022-09-26T03:49:11.339Z,93.14
2022-09-26T03:50:10.490Z,93.04
2022-09-26T03:51:10.942Z,92.93
2022-09-26T03:52:10.470Z,92.83
2022-09-26T03:53:10.470Z,92.83
2022-09-26T03:54:10.439Z,92.93
2022-09-26T03:55:10.449Z,93.04
2022-09-26T03:56:10.611Z,93.14
2022-09-26T03:57:10.440Z,93.24
2022-09-26T03:58:10.399Z,93.35
2022-09-26T03:59:10.400Z,93.35
2022-09-26T04:00:10.415Z,93.45
2022-09-26T04:01:10.495Z,93.45
2022-09-26T04:02:10.389Z,93.45
2022-09-26T04:03:10.375Z,93.45
2022-09-26T04:04:10.330Z,93.55
2022-09-26T04:05:10.331Z,93.55
2022-09-26T04:06:10.308Z,93.55
2022-09-26T04:07:10.306Z,93.66
2022-09-26T04:08:11.178Z,93.55
2022-09-26T04:09:15.878Z,93.45
2022-09-26T04:10:11.269Z,93.45
2022-09-26T04:11:10.278Z,93.45
2022-09-26T04:12:10.227Z,93.45
2022-09-26T04:13:10.239Z,93.66
2022-09-26T04:14:10.259Z,93.76
2022-09-26T04:15:10.220Z,93.76
2022-09-26T04:16:10.212Z,93.76
2022-09-26T04:17:10.187Z,93.76
2022-09-26T04:18:10.158Z,93.76
2022-09-26T04:19:10.173Z,93.76
2022-09-26T04:20:10.188Z,93.87
2022-09-26T04:21:10.303Z,93.87
2022-09-26T04:22:10.119Z,93.76
2022-09-26T04:23:10.125Z,93.76
2022-09-26T04:24:10.097Z,93.76
2022-09-26T04:25:10.105Z,93.76
2022-09-26T04:26:10.067Z,93.76
2022-09-26T04:27:10.106Z,93.87
2022-09-26T04:28:10.046Z,93.87
2022-09-26T04:29:10.171Z,93.97
2022-09-26T04:30:10.170Z,94.03
2022-09-26T04:31:10.065Z,93.93
2022-09-26T04:32:10.005Z,93.93
2022-09-26T04:33:10.015Z,93.93
2022-09-26T04:34:09.966Z,93.93
2022-09-26T04:35:09.995Z,93.93
2022-09-26T04:36:09.966Z,93.93
2022-09-26T04:37:09.966Z,93.93
2022-09-26T04:38:09.936Z,93.93
2022-09-26T04:39:09.936Z,93.93
2022-09-26T04:40:09.906Z,93.82
2022-09-26T04:41:09.963Z,93.82
2022-09-26T04:42:10.062Z,93.87
2022-09-26T04:43:09.905Z,93.82
2022-09-26T04:44:09.876Z,93.87
2022-09-26T04:45:09.876Z,93.97
2022-09-26T04:46:09.905Z,93.97
2022-09-26T04:47:09.853Z,94.03
2022-09-26T04:48:09.815Z,94.18
2022-09-26T04:49:10.572Z,94.28
2022-09-26T04:50:09.830Z,94.28
2022-09-26T04:51:10.224Z,94.38
2022-09-26T04:52:09.790Z,94.28
2022-09-26T04:53:10.233Z,94.28
2022-09-26T04:54:09.745Z,94.38
2022-09-26T04:55:09.753Z,94.48
2022-09-26T04:56:09.725Z,94.59
2022-09-26T04:57:10.074Z,94.59
2022-09-26T04:58:09.695Z,94.69
2022-09-26T04:59:09.732Z,94.79
2022-09-26T05:00:09.677Z,94.79
2022-09-26T05:01:09.734Z,94.90
2022-09-26T05:02:09.742Z,94.90
2022-09-26T05:03:09.664Z,94.90
2022-09-26T05:04:09.634Z,94.90
2022-09-26T05:05:09.704Z,94.79
2022-09-26T05:06:09.734Z,94.90
2022-09-26T05:07:09.611Z,94.90
2022-09-26T05:08:09.637Z,95.00
2022-09-26T05:09:09.687Z,95.10
2022-09-26T05:10:10.392Z,95.21
2022-09-26T05:11:09.595Z,95.31
2022-09-26T05:12:09.773Z,95.42
2022-09-26T05:13:09.547Z,95.52
2022-09-26T05:14:09.534Z,95.62
2022-09-26T05:15:09.550Z,95.62
2022-09-26T05:16:09.519Z,95.73
2022-09-26T05:17:09.505Z,95.73
2022-09-26T05:18:09.475Z,95.83
2022-09-26T05:19:09.545Z,95.83
2022-09-26T05:20:09.452Z,95.83
2022-09-26T05:21:09.908Z,95.83
2022-09-26T05:22:09.426Z,95.83
2022-09-26T05:23:10.382Z,95.83
2022-09-26T05:24:09.420Z,95.83
2022-09-26T05:25:09.413Z,95.68
2022-09-26T05:26:09.394Z,95.68
2022-09-26T05:27:09.392Z,95.68
2022-09-26T05:28:09.361Z,95.57
2022-09-26T05:29:09.559Z,95.57
2022-09-26T05:30:09.342Z,95.57
2022-09-26T05:31:10.173Z,95.57
2022-09-26T05:32:09.799Z,95.68
2022-09-26T05:33:09.320Z,95.68
2022-09-26T05:34:09.291Z,95.64
2022-09-26T05:35:09.298Z,95.64
2022-09-26T05:36:09.274Z,95.53
2022-09-26T05:37:09.299Z,95.53
2022-09-26T05:38:09.252Z,95.32
2022-09-26T05:39:09.266Z,95.22
2022-09-26T05:40:09.220Z,95.12
2022-09-26T05:41:09.240Z,94.92
2022-09-26T05:42:09.211Z,94.67
2022-09-26T05:43:09.201Z,94.56
2022-09-26T05:44:09.188Z,94.35
2022-09-26T05:45:09.187Z,94.25
2022-09-26T05:46:09.150Z,94.15
2022-09-26T05:47:09.314Z,94.15
2022-09-26T05:48:09.135Z,94.04
2022-09-26T05:49:09.168Z,94.04
2022-09-26T05:50:09.121Z,94.04
2022-09-26T05:51:10.027Z,94.00
2022-09-26T05:52:09.095Z,94.10
2022-09-26T05:53:09.090Z,94.10
2022-09-26T05:54:09.069Z,94.10
2022-09-26T05:55:09.102Z,94.00
2022-09-26T05:56:09.039Z,94.00
2022-09-26T05:57:09.040Z,93.90
2022-09-26T05:58:09.010Z,93.85
2022-09-26T05:59:09.068Z,93.85
2022-09-26T06:00:09.001Z,93.75
2022-09-26T06:01:09.013Z,93.85
2022-09-26T06:02:09.015Z,93.75
2022-09-26T06:03:08.969Z,93.65
2022-09-26T06:04:08.967Z,93.85
2022-09-26T06:05:08.929Z,94.23
2022-09-26T06:06:08.957Z,94.43
2022-09-26T06:07:08.909Z,94.53
2022-09-26T06:08:08.908Z,94.53
2022-09-26T06:09:08.893Z,94.64
2022-09-26T06:10:09.720Z,94.49
2022-09-26T06:11:09.618Z,94.38
2022-09-26T06:12:09.576Z,94.28
2022-09-26T06:13:08.847Z,94.28
2022-09-26T06:14:09.578Z,94.38
2022-09-26T06:15:08.818Z,94.38
2022-09-26T06:16:08.861Z,94.38
2022-09-26T06:17:08.788Z,94.34
2022-09-26T06:18:08.849Z,94.45
2022-09-26T06:19:08.828Z,94.34
2022-09-26T06:20:08.788Z,94.45
2022-09-26T06:21:09.693Z,94.45
2022-09-26T06:22:08.747Z,94.51
2022-09-26T06:23:08.727Z,94.51
2022-09-26T06:24:08.730Z,94.60
2022-09-26T06:25:08.728Z,94.51
2022-09-26T06:26:08.706Z,94.51
2022-09-26T06:27:08.678Z,94.40
2022-09-26T06:28:08.675Z,94.40
2022-09-26T06:29:08.746Z,94.36
2022-09-26T06:30:08.658Z,94.36
2022-09-26T06:31:08.667Z,94.36
2022-09-26T06:32:08.938Z,94.26
2022-09-26T06:33:08.617Z,94.15
2022-09-26T06:34:08.619Z,93.74
2022-09-26T06:35:08.587Z,93.43
2022-09-26T06:36:08.698Z,93.43
2022-09-26T06:37:08.567Z,93.43
2022-09-26T06:38:08.577Z,93.12
2022-09-26T06:39:08.563Z,92.61
2022-09-26T06:40:08.547Z,92.71
2022-09-26T06:41:08.517Z,92.71
2022-09-26T06:42:08.537Z,92.67
2022-09-26T06:43:08.497Z,92.77
2022-09-26T06:44:08.500Z,92.87
2022-09-26T06:45:08.597Z,92.97
2022-09-26T06:46:08.807Z,92.97
2022-09-26T06:47:08.490Z,92.87
2022-09-26T06:48:09.403Z,91.95
2022-09-26T06:49:08.449Z,92.25
2022-09-26T06:50:08.441Z,92.46
2022-09-26T06:51:08.426Z,92.67
2022-09-26T06:52:09.257Z,92.77
2022-09-26T06:53:09.175Z,92.87
2022-09-26T06:54:08.395Z,92.83
2022-09-26T06:55:08.377Z,92.73
2022-09-26T06:56:08.389Z,92.63
2022-09-26T06:57:12.835Z,92.52
2022-09-26T06:58:09.347Z,92.52
2022-09-26T06:59:08.317Z,92.42
2022-09-26T07:00:08.386Z,92.32
2022-09-26T07:01:08.420Z,92.11
2022-09-26T07:02:08.492Z,92.21
2022-09-26T07:03:08.341Z,92.17
2022-09-26T07:04:08.317Z,92.27
2022-09-26T07:05:08.266Z,91.97
2022-09-26T07:06:08.246Z,91.55
2022-09-26T07:07:08.246Z,91.45
2022-09-26T07:08:08.229Z,91.14
2022-09-26T07:09:12.579Z,91.00
2022-09-26T07:10:08.205Z,90.89
2022-09-26T07:11:31.280Z,90.69
2022-09-26T07:12:14.567Z,90.69
2022-09-26T07:13:09.176Z,90.69
2022-09-26T07:14:08.166Z,90.59
2022-09-26T07:15:08.146Z,90.08
2022-09-26T07:16:08.221Z,89.56
2022-09-26T07:17:08.220Z,89.21
2022-09-26T07:18:08.129Z,89.21
2022-09-26T07:19:08.186Z,89.42
2022-09-26T07:20:08.103Z,89.62
2022-09-26T07:21:08.074Z,89.11
2022-09-26T07:22:08.079Z,89.17
2022-09-26T07:23:08.045Z,88.45
2022-09-26T07:24:08.064Z,88.35
2022-09-26T07:25:08.015Z,88.35
2022-09-26T07:26:08.046Z,88.14
2022-09-26T07:27:08.005Z,88.24
2022-09-26T07:28:08.025Z,87.79
2022-09-26T07:29:07.974Z,87.90
2022-09-26T07:30:07.985Z,87.70
2022-09-26T07:31:08.086Z,86.77
2022-09-26T07:32:07.952Z,86.77
2022-09-26T07:33:08.166Z,86.93
2022-09-26T07:34:08.235Z,86.93
2022-09-26T07:35:07.917Z,86.93
2022-09-26T07:36:07.914Z,87.14
2022-09-26T07:37:07.891Z,87.14
2022-09-26T07:38:07.951Z,86.58
2022-09-26T07:39:07.864Z,85.66
2022-09-26T07:40:07.863Z,85.15
2022-09-26T07:41:07.846Z,85.31
2022-09-26T07:42:07.835Z,85.11
2022-09-26T07:43:19.610Z,84.77
2022-09-26T07:45:24.760Z,84.46
2022-09-26T07:46:08.858Z,84.11
2022-09-26T07:47:07.833Z,83.19
2022-09-26T07:48:07.790Z,83.50
2022-09-26T07:49:07.754Z,83.91
2022-09-26T07:50:07.753Z,82.54
2022-09-26T07:51:09.407Z,81.93
2022-09-26T07:52:07.723Z,82.43
2022-09-26T07:53:07.725Z,81.41
2022-09-26T07:54:08.432Z,81.88
2022-09-26T07:55:07.696Z,80.97
2022-09-26T07:56:07.695Z,80.46
2022-09-26T07:57:07.654Z,81.24
2022-09-26T07:58:07.661Z,81.44
2022-09-26T07:59:07.633Z,80.42
2022-09-26T08:00:07.635Z,79.91
2022-09-26T08:01:07.634Z,79.91
2022-09-26T08:02:07.776Z,78.68
2022-09-26T08:03:07.650Z,78.92
2022-09-26T08:04:07.592Z,79.74
2022-09-26T08:05:07.563Z,80.15
2022-09-26T08:06:07.577Z,80.05
2022-09-26T08:07:07.552Z,79.53
2022-09-26T08:08:07.563Z,78.99
2022-09-26T08:09:07.533Z,78.58
2022-09-26T08:10:07.531Z,78.23
2022-09-26T08:11:07.502Z,78.13
2022-09-26T08:12:07.514Z,77.83
2022-09-26T08:13:08.399Z,77.48
2022-09-26T08:14:08.315Z,78.00
2022-09-26T08:15:07.655Z,77.65
2022-09-26T08:16:08.414Z,77.25
2022-09-26T08:17:11.912Z,76.53
2022-09-26T08:18:09.197Z,76.39
2022-09-26T08:19:07.468Z,76.39
2022-09-26T08:20:07.423Z,74.96
2022-09-26T08:21:07.392Z,75.78
2022-09-26T08:22:08.294Z,74.11
2022-09-26T08:23:07.381Z,74.42
2022-09-26T08:24:07.384Z,74.79
2022-09-26T08:25:07.343Z,73.97
2022-09-26T08:26:07.352Z,74.18
2022-09-26T08:27:07.324Z,73.94
2022-09-26T08:28:07.331Z,74.45
2022-09-26T08:29:07.305Z,73.30
2022-09-26T08:30:07.302Z,71.67
2022-09-26T08:31:07.356Z,71.77
2022-09-26T08:32:07.276Z,71.91
2022-09-26T08:33:07.343Z,71.60
2022-09-26T08:34:07.262Z,72.31
2022-09-26T08:35:07.236Z,71.39
2022-09-26T08:36:07.232Z,71.47
2022-09-26T08:37:07.282Z,71.19
2022-09-26T08:38:07.213Z,73.13
2022-09-26T08:39:07.263Z,72.28
2022-09-26T08:40:07.183Z,73.50
2022-09-26T08:41:07.427Z,71.94
2022-09-26T08:42:07.163Z,70.72
2022-09-26T08:43:07.180Z,71.43
2022-09-26T08:44:07.175Z,71.50
2022-09-26T08:45:07.105Z,72.11
2022-09-26T08:46:07.140Z,72.72
2022-09-26T08:47:07.104Z,70.48
2022-09-26T08:48:07.113Z,69.06
2022-09-26T08:49:07.066Z,70.31
2022-09-26T08:50:07.072Z,70.31
2022-09-26T08:51:07.068Z,72.25
2022-09-26T08:52:07.405Z,70.45
2022-09-26T08:53:07.127Z,71.16
2022-09-26T08:54:07.141Z,71.56
2022-09-26T08:55:07.725Z,70.55
2022-09-26T08:56:07.006Z,71.91
2022-09-26T08:57:06.970Z,71.70
2022-09-26T08:58:06.985Z,71.60
2022-09-26T08:59:06.944Z,72.21
2022-09-26T09:00:06.954Z,71.67
2022-09-26T09:01:06.923Z,71.26
2022-09-26T09:02:07.012Z,71.16
2022-09-26T09:03:06.986Z,70.65
2022-09-26T09:04:06.990Z,70.45
2022-09-26T09:05:06.880Z,70.24
2022-09-26T09:06:06.882Z,70.34
2022-09-26T09:07:06.852Z,70.17
2022-09-26T09:08:06.852Z,72.31
2022-09-26T09:09:06.822Z,73.19
2022-09-26T09:10:06.830Z,71.77
2022-09-26T09:11:06.804Z,72.58
2022-09-26T09:12:06.809Z,71.94
2022-09-26T09:13:06.783Z,70.62
2022-09-26T09:14:06.838Z,70.41
2022-09-26T09:15:25.866Z,69.80
2022-09-26T09:16:08.172Z,69.90
2022-09-26T09:17:06.734Z,69.90
2022-09-26T09:18:09.989Z,71.12
2022-09-26T09:19:07.712Z,71.02
2022-09-26T09:20:06.715Z,70.01
2022-09-26T09:21:06.687Z,71.94
2022-09-26T09:22:06.692Z,71.43
2022-09-26T09:23:06.663Z,69.60
2022-09-26T09:24:06.775Z,70.51
2022-09-26T09:25:06.643Z,70.01
2022-09-26T09:28:08.769Z,69.80
2022-09-26T09:29:10.376Z,69.80
2022-09-26T09:30:15.812Z,69.57
2022-09-26T09:31:07.624Z,68.96
2022-09-26T09:32:06.574Z,68.75
2022-09-26T09:33:06.573Z,68.96
2022-09-26T09:34:06.632Z,69.29
2022-09-26T09:35:06.530Z,69.43
2022-09-26T09:36:07.028Z,70.62
2022-09-26T09:37:06.503Z,69.63
2022-09-26T09:38:06.508Z,70.04
2022-09-26T09:39:06.484Z,70.95
2022-09-26T09:40:06.489Z,71.16
2022-09-26T09:41:06.513Z,70.75
2022-09-26T09:42:06.464Z,70.24
2022-09-26T09:43:06.424Z,70.17
2022-09-26T09:44:06.528Z,70.78
2022-09-26T09:45:06.403Z,71.23
2022-09-26T09:46:06.467Z,71.94
2022-09-26T09:47:06.401Z,72.75
2022-09-26T09:48:06.383Z,72.14
2022-09-26T09:49:06.395Z,72.75
2022-09-26T09:50:06.380Z,72.48
2022-09-26T09:51:06.339Z,73.10
2022-09-26T09:52:06.343Z,72.79
2022-09-26T09:53:06.366Z,72.99
2022-09-26T09:54:06.341Z,73.40
2022-09-26T09:55:06.303Z,73.81
2022-09-26T09:56:07.213Z,73.71
2022-09-26T09:57:06.296Z,73.10
2022-09-26T09:58:06.271Z,73.91
2022-09-26T09:59:06.242Z,73.91
2022-09-26T10:00:06.243Z,73.71
2022-09-26T10:01:06.213Z,74.32
2022-09-26T10:02:06.221Z,74.11
2022-09-26T10:03:06.292Z,74.18
2022-09-26T10:04:06.253Z,74.18
2022-09-26T10:05:06.185Z,73.47
2022-09-26T10:06:08.591Z,73.71
2022-09-26T10:07:07.151Z,74.73
2022-09-26T10:08:06.156Z,76.05
2022-09-26T10:09:35.260Z,74.93
2022-09-26T10:10:07.132Z,75.13
2022-09-26T10:11:06.112Z,74.90
2022-09-26T10:12:06.113Z,75.40
2022-09-26T10:13:06.084Z,74.99
2022-09-26T10:14:06.115Z,73.97
2022-09-26T10:15:06.072Z,74.18
2022-09-26T10:16:06.118Z,74.18
2022-09-26T10:17:06.767Z,74.79
2022-09-26T10:18:24.086Z,74.35
2022-09-26T10:19:07.042Z,75.27
2022-09-26T10:20:06.033Z,75.37
2022-09-26T10:21:06.013Z,74.62
2022-09-26T10:22:05.994Z,74.52
2022-09-26T10:23:05.994Z,74.32
2022-09-26T10:24:05.975Z,73.40
2022-09-26T10:25:05.983Z,73.50
2022-09-26T10:26:05.945Z,72.99
2022-09-26T10:27:05.943Z,73.19
2022-09-26T10:28:06.705Z,74.21
2022-09-26T10:29:13.154Z,74.72
2022-09-26T10:30:05.896Z,74.45
2022-09-26T10:31:05.940Z,74.45
2022-09-26T10:32:05.876Z,74.35
2022-09-26T10:33:05.884Z,75.16
2022-09-26T10:34:05.918Z,74.04
2022-09-26T10:35:05.856Z,74.04
2022-09-26T10:36:05.826Z,74.35
2022-09-26T10:37:05.835Z,75.37
2022-09-26T10:38:06.537Z,75.16
2022-09-26T10:39:06.707Z,74.82
2022-09-26T10:40:05.809Z,73.84
2022-09-26T10:41:05.883Z,73.74
2022-09-26T10:42:05.766Z,73.94
2022-09-26T10:43:05.768Z,74.82
2022-09-26T10:44:05.845Z,73.91
2022-09-26T10:45:05.798Z,73.50
2022-09-26T10:46:05.803Z,73.91
2022-09-26T10:47:05.716Z,73.19
2022-09-26T10:48:05.707Z,73.13
2022-09-26T10:49:05.696Z,73.33
2022-09-26T10:50:05.727Z,73.64
2022-09-26T10:51:05.679Z,74.35
2022-09-26T10:52:05.647Z,73.36
2022-09-26T10:53:05.654Z,74.79
2022-09-26T10:54:05.628Z,74.49
2022-09-26T10:55:05.634Z,74.35
2022-09-26T10:56:06.447Z,74.45
2022-09-26T10:57:05.636Z,74.76
2022-09-26T10:58:11.399Z,74.45
2022-09-26T10:59:06.657Z,74.35
2022-09-26T11:00:05.557Z,74.65
2022-09-26T11:01:05.578Z,74.35
2022-09-26T11:02:05.595Z,74.79
2022-09-26T11:03:05.545Z,74.79
2022-09-26T11:04:05.588Z,74.79
2022-09-26T11:05:05.517Z,75.74
2022-09-26T11:06:05.506Z,76.46
2022-09-26T11:07:05.505Z,75.13
2022-09-26T11:08:05.470Z,75.44
2022-09-26T11:09:05.474Z,75.34
2022-09-26T11:10:05.446Z,76.25
2022-09-26T11:11:05.445Z,76.35
2022-09-26T11:12:05.555Z,76.87
2022-09-26T11:13:05.446Z,76.50
2022-09-26T11:14:05.405Z,77.21
2022-09-26T11:15:05.406Z,78.33
2022-09-26T11:16:05.432Z,78.74
2022-09-26T11:17:05.413Z,78.33
2022-09-26T11:18:06.255Z,79.04
2022-09-26T11:19:06.213Z,78.84
2022-09-26T11:20:05.346Z,79.35
2022-09-26T11:21:14.339Z,79.75
2022-09-26T11:22:08.389Z,78.84
2022-09-26T11:23:05.337Z,79.14
2022-09-26T11:24:05.305Z,79.66
2022-09-26T11:25:05.295Z,79.96
2022-09-26T11:26:05.275Z,78.84
2022-09-26T11:27:05.288Z,78.84
2022-09-26T11:28:05.255Z,78.12
2022-09-26T11:29:05.247Z,78.64
2022-09-26T11:30:05.262Z,78.94
2022-09-26T11:31:05.411Z,79.04
2022-09-26T11:32:05.206Z,79.35
2022-09-26T11:33:05.206Z,79.45
2022-09-26T11:34:05.199Z,79.66
2022-09-26T11:35:05.193Z,78.74
2022-09-26T11:36:05.163Z,79.35
2022-09-26T11:37:05.176Z,79.86
2022-09-26T11:38:05.167Z,79.14
2022-09-26T11:39:06.066Z,79.75
2022-09-26T11:40:09.549Z,80.37
2022-09-26T11:41:05.149Z,79.96
2022-09-26T11:42:05.095Z,79.66
2022-09-26T11:43:05.095Z,79.86
2022-09-26T11:44:05.104Z,79.90
2022-09-26T11:45:05.156Z,80.88
2022-09-26T11:46:05.114Z,81.39
2022-09-26T11:47:05.050Z,81.09
2022-09-26T11:48:05.026Z,79.66
2022-09-26T11:49:05.036Z,80.64
2022-09-26T11:50:05.050Z,80.54
2022-09-26T11:51:05.067Z,80.43
2022-09-26T11:52:05.005Z,79.52
2022-09-26T11:53:04.986Z,79.93
2022-09-26T11:54:04.976Z,79.00
2022-09-26T11:55:04.987Z,78.36
2022-09-26T11:56:05.201Z,79.17
2022-09-26T11:57:04.947Z,78.87
2022-09-26T11:58:05.006Z,79.58
2022-09-26T11:59:05.645Z,79.17
2022-09-26T12:00:05.811Z,79.27
2022-09-26T12:01:04.910Z,79.38
2022-09-26T12:02:04.877Z,79.62
2022-09-26T12:03:05.011Z,79.32
2022-09-26T12:04:04.986Z,79.11
2022-09-26T12:05:04.865Z,80.57
2022-09-26T12:06:04.864Z,80.57
2022-09-26T12:07:04.836Z,81.29
2022-09-26T12:08:04.815Z,81.73
2022-09-26T12:09:04.820Z,82.14
2022-09-26T12:10:04.814Z,82.75
2022-09-26T12:11:04.796Z,81.53
2022-09-26T12:12:04.773Z,81.87
2022-09-26T12:13:04.777Z,82.49
2022-09-26T12:14:04.757Z,82.49
2022-09-26T12:15:04.758Z,82.39
2022-09-26T12:16:04.788Z,82.83
2022-09-26T12:17:04.724Z,83.65
2022-09-26T12:18:05.260Z,83.59
2022-09-26T12:19:05.524Z,84.30
2022-09-26T12:20:04.686Z,84.20
2022-09-26T12:21:04.676Z,83.28
2022-09-26T12:22:04.663Z,84.41
2022-09-26T12:23:04.875Z,83.18
2022-09-26T12:24:04.636Z,84.06
2022-09-26T12:25:04.667Z,83.85
2022-09-26T12:26:04.985Z,83.24
2022-09-26T12:27:04.616Z,84.16
2022-09-26T12:28:04.586Z,83.14
2022-09-26T12:29:04.588Z,82.22
2022-09-26T12:30:04.566Z,82.12
2022-09-26T12:31:04.590Z,82.53
2022-09-26T12:32:04.586Z,82.53
2022-09-26T12:33:04.545Z,83.24
2022-09-26T12:34:04.635Z,82.93
2022-09-26T12:35:05.156Z,83.54
2022-09-26T12:36:04.496Z,82.42
2022-09-26T12:37:04.505Z,82.12
2022-09-26T12:38:04.505Z,82.93
2022-09-26T12:39:04.495Z,82.12
2022-09-26T12:40:04.494Z,82.59
2022-09-26T12:41:05.232Z,82.18
2022-09-26T12:42:04.474Z,82.39
2022-09-26T12:43:04.438Z,81.53
2022-09-26T12:44:04.426Z,81.02
2022-09-26T12:45:05.336Z,79.90
2022-09-26T12:46:04.458Z,80.10
2022-09-26T12:47:04.398Z,80.82
2022-09-26T12:48:04.378Z,80.27
2022-09-26T12:49:04.365Z,79.55
2022-09-26T12:50:04.337Z,79.55
2022-09-26T12:51:05.269Z,79.25
2022-09-26T12:52:04.347Z,79.04
2022-09-26T12:53:04.326Z,79.04
2022-09-26T12:54:05.004Z,78.64
2022-09-26T12:55:04.313Z,79.04